Αρχική σελίδα
METAR-TAF:

METAR-TAF

Αεροδρόμια :

Σαν Χουάν δε Πάστο, Κολομβία

γεωγραφικό πλάτος: 01-25N, γεωγραφικό μήκος: 077-16W, υψόμετρο: 1826 μ

Παρών καιρός

Η αναφορά έγινε 48 λεπτά πριν, στις 20:00 UTC
Άνεμος 8 kt από Α/BA, μεταβλητός μεταξύ Β και Ν/NA
Θερμοκρασία 26°C
Υγρασία 37%
Πίεση 1020 hPa
Ορατότητα 10 χλμ και άνω
Διάσπαρτα νέφη σε ύψος 3000 πόδια

METAR: SKPS 192000Z 07008KT 010V160 9999 SCT030 26/10 Q1020

Χρόνος: 15:48 (20:48 UTC)


TAF: λείπει

Μετεωρολογικές αναφορές και προγνώσεις για περισσότερα από 4000 αεροδρόμια (δελτία METAR και TAF).

Οι διαθέσιμοι σταθμοί απεικονίζονται στο χάρτη με κίτρινες και κόκκινες κουκκίδες.

Μετακινήστε το ποντίκι πάνω από τις κουκκίδες για να δείτε το όνομα του σταθμού.

Στη συνέχεια, κάντε κλικ για να δείτε τις μετεωρολογικές αναφορές και τις προγνώσεις καιρού.

Για να αλλάξετε το χάρτη: κάντε κλικ στα πράσινα κουμπιά με τον μαύρο σταυρό για να ζουμάρετε, στο πράσινο κουμπί με την παύλα για να αφαιρέσετε το ζουμ ή στα πράσινα βέλη για να αντιπαραβάλλετε χάρτες.


METAR-TAF: